Rees, Illinois
Current Conditions -  °F | °C
As of 4:55 PM on Wednesday 26 Nov 2014 (Local Time) from KIJX Reporting Station
Light Snow Light Snow  
Wind Chill: 25°   Ceiling: 500
Heat Index: 33°   Visibility: 1.7mi
Dew Point: 32°   Wind: 10mph
Humidity: 95%   Direction: 80°E
Pressure: 30.04"   Gusts: NA
Location:  39.5952°N, 90.058°W
Report Text: KIJX 262255Z AUTO 08009KT 1 3/4SM -SN OVC005 01/00 A3004 RMK AO2 T00051002
Loading
Personal Weather Stations






























Interactive Weather Map New forecast layout! Learn more

10-Day Weather Forecast

Advertisements
Track Severe Weather on mobile